Time;durP1;ratioP1;P1;durP2;ratioP2;P2;SDS_P1;SDS_P2;PMS_P1;PMS_P2;Temp;Humidity;BMP_temperature;BMP_pressure;BME280_temperature;BME280_humidity;BME280_pressure;Samples;Min_cycle;Max_cycle;Signal;HPM_P1;HPM_P2
2022/05/04 00:00:01;;;;;;;14.17;12.80;;;;;;;10.10;100.00;96378.88;5032493;28;20860;-75
2022/05/04 00:02:39;;;;;;;13.20;12.10;;;;;;;9.88;100.00;96353.56;5050306;28;20916;-75
2022/05/04 00:05:06;;;;;;;13.40;12.30;;;;;;;9.89;100.00;96367.53;5032335;28;20533;-75
2022/05/04 00:07:33;;;;;;;12.67;11.57;;;;;;;9.50;100.00;96339.66;5050175;28;20429;-75
2022/05/04 00:10:00;;;;;;;14.70;13.40;;;;;;;9.48;100.00;96345.22;5032271;28;20507;-75
2022/05/04 00:12:27;;;;;;;15.97;14.47;;;;;;;9.63;100.00;96355.25;5032323;28;20447;-75
2022/05/04 00:14:54;;;;;;;17.13;13.80;;;;;;;9.68;100.00;96356.94;5033085;28;20432;-75
2022/05/04 00:17:20;;;;;;;17.83;16.13;;;;;;;9.38;100.00;96346.38;5035924;28;21030;-75
2022/05/04 00:19:47;;;;;;;18.70;15.50;;;;;;;9.40;100.00;96359.25;5035570;28;20491;-75
2022/05/04 00:22:20;;;;;;;16.50;14.90;;;;;;;9.29;100.00;96356.16;5035744;28;20432;-75
2022/05/04 00:24:47;;;;;;;19.00;15.90;;;;;;;9.27;100.00;96368.91;5053632;28;20448;-75
2022/05/04 00:27:15;;;;;;;16.33;14.73;;;;;;;9.23;100.00;96359.31;5035698;28;20495;-75
2022/05/04 00:29:46;;;;;;;17.13;15.40;;;;;;;9.02;100.00;96338.13;5035473;28;20562;-75
2022/05/04 00:32:14;;;;;;;17.87;16.27;;;;;;;9.17;100.00;96362.09;5053538;28;20498;-75
2022/05/04 00:34:41;;;;;;;18.50;16.80;;;;;;;8.86;100.00;96343.91;5053807;28;20420;-74
2022/05/04 00:37:08;;;;;;;17.17;15.57;;;;;;;8.76;100.00;96330.28;5035522;28;20439;-75
2022/05/04 00:39:35;;;;;;;18.63;15.27;;;;;;;8.99;100.00;96368.53;5035405;28;20444;-75
2022/05/04 00:42:12;;;;;;;17.90;15.57;;;;;;;8.97;100.00;96359.41;5037738;28;20530;-75
2022/05/04 00:44:40;;;;;;;18.03;16.23;;;;;;;8.80;100.00;96360.97;5035618;28;20461;-75
2022/05/04 00:47:07;;;;;;;16.63;14.50;;;;;;;8.70;100.00;96344.72;5035240;28;20490;-75
2022/05/04 00:49:35;;;;;;;17.97;16.27;;;;;;;8.76;100.00;96365.31;5035389;28;20544;-75
2022/05/04 00:52:04;;;;;;;18.00;16.30;;;;;;;8.51;100.00;96319.47;5035083;28;20875;-75
2022/05/04 00:54:32;;;;;;;17.20;15.70;;;;;;;8.73;100.00;96360.69;5035284;28;20448;-75
2022/05/04 00:56:59;;;;;;;15.70;14.10;;;;;;;8.70;100.00;96337.59;5035265;28;20958;-75
2022/05/04 00:59:26;;;;;;;16.10;14.70;;;;;;;8.57;100.00;96334.03;5035248;28;20843;-75
2022/05/04 01:01:53;;;;;;;15.40;14.00;;;;;;;8.64;100.00;96328.28;5051599;28;21039;-75
2022/05/04 01:04:20;;;;;;;14.77;13.33;;;;;;;8.71;100.00;96352.31;5052895;28;21295;-75
2022/05/04 01:06:46;;;;;;;17.50;15.90;;;;;;;8.53;100.00;96324.41;5051653;28;20482;-75
2022/05/04 01:09:13;;;;;;;15.27;13.53;;;;;;;8.63;100.00;96332.00;5034899;28;20447;-75
2022/05/04 01:11:41;;;;;;;14.73;13.43;;;;;;;8.56;100.00;96350.16;5034858;28;20860;-75
2022/05/04 01:14:11;;;;;;;14.90;13.47;;;;;;;8.59;100.00;96358.22;5034839;28;20533;-74
2022/05/04 01:16:41;;;;;;;13.37;12.17;;;;;;;8.61;100.00;96341.31;5053595;28;20477;-74
2022/05/04 01:19:09;;;;;;;14.37;12.97;;;;;;;8.83;100.00;96356.94;5034978;28;20452;-74
2022/05/04 01:21:37;;;;;;;13.07;11.87;;;;;;;8.75;100.00;96363.78;5035259;28;20500;-74
2022/05/04 01:24:04;;;;;;;14.00;12.87;;;;;;;8.83;100.00;96362.22;5034917;28;20563;-75
2022/05/04 01:26:31;;;;;;;16.30;12.67;;;;;;;8.72;100.00;96332.78;5050442;28;20475;-75
2022/05/04 01:28:58;;;;;;;18.33;13.00;;;;;;;8.96;100.00;96339.38;5034999;28;20457;-74
2022/05/04 01:31:25;;;;;;;14.17;11.93;;;;;;;8.97;100.00;96352.25;5018573;28;20507;-75
2022/05/04 01:33:51;;;;;;;12.83;11.60;;;;;;;8.97;100.00;96354.13;5052420;28;20433;-75
2022/05/04 01:36:18;;;;;;;13.50;12.40;;;;;;;7.94;100.00;96321.47;5052614;28;20462;-75
2022/05/04 01:38:45;;;;;;;14.03;12.83;;;;;;;7.73;100.00;96313.41;5034907;28;21028;-74
2022/05/04 01:44:10;;;;;;;14.83;13.67;;;;;;;7.54;100.00;96328.69;5011483;28;20503;-75
2022/05/04 01:46:37;;;;;;;13.60;12.30;;;;;;;7.48;100.00;96325.44;5034212;28;20463;-75
2022/05/04 01:49:04;;;;;;;16.40;14.70;;;;;;;7.57;100.00;96317.56;5052307;28;20467;-75
2022/05/04 01:51:31;;;;;;;16.07;14.53;;;;;;;7.94;100.00;96359.09;5034741;28;20459;-75
2022/05/04 01:53:57;;;;;;;14.53;13.23;;;;;;;8.13;100.00;96364.06;5034372;28;20432;-75
2022/05/04 01:56:24;;;;;;;14.60;13.40;;;;;;;7.93;100.00;96341.00;5041659;28;20840;-75
2022/05/04 01:58:51;;;;;;;14.70;13.30;;;;;;;7.97;100.00;96326.91;5062712;28;20475;-75
2022/05/04 02:01:18;;;;;;;13.07;11.80;;;;;;;8.17;100.00;96366.88;5034270;28;20467;-75
2022/05/04 02:03:45;;;;;;;13.40;12.30;;;;;;;8.04;100.00;96330.94;5034604;28;20462;-75
2022/05/04 02:06:12;;;;;;;14.40;13.00;;;;;;;8.28;100.00;96354.97;5033861;28;20443;-75
2022/05/04 02:08:40;;;;;;;14.57;13.17;;;;;;;8.21;100.00;96358.03;5033950;28;20436;-75
2022/05/04 02:11:07;;;;;;;14.47;13.10;;;;;;;8.32;100.00;96371.69;5033631;28;20482;-75
2022/05/04 02:13:34;;;;;;;12.10;11.10;;;;;;;7.83;100.00;96331.53;5033899;28;20526;-75
2022/05/04 02:16:01;;;;;;;14.20;13.00;;;;;;;7.78;100.00;96368.53;5051631;28;20463;-75
2022/05/04 02:18:27;;;;;;;13.50;12.30;;;;;;;7.61;100.00;96324.53;5033754;28;20451;-75
2022/05/04 02:20:54;;;;;;;15.20;13.80;;;;;;;7.81;100.00;96364.50;5033450;28;20471;-74
2022/05/04 02:23:21;;;;;;;16.90;15.10;;;;;;;7.69;100.00;96371.13;5033680;28;20477;-75
2022/05/04 02:25:48;;;;;;;15.30;13.90;;;;;;;7.49;100.00;96345.41;5033885;28;20540;-75
2022/05/04 02:28:15;;;;;;;14.13;12.93;;;;;;;7.45;100.00;96344.44;5051516;28;20921;-75
2022/05/04 02:30:43;;;;;;;16.63;15.13;;;;;;;7.76;100.00;96370.69;5033262;28;20472;-75
2022/05/04 02:33:11;;;;;;;14.53;13.23;;;;;;;7.42;100.00;96376.63;5051405;28;20512;-75
2022/05/04 02:38:23;;;;;;;13.57;12.37;;;;;;;7.70;100.00;96346.38;5032967;28;20443;-75
2022/05/04 02:40:50;;;;;;;13.27;12.07;;;;;;;7.73;100.00;96350.22;5051168;28;20872;-75
2022/05/04 02:43:17;;;;;;;14.17;12.97;;;;;;;7.61;100.00;96334.25;5033410;28;20440;-75
2022/05/04 02:45:43;;;;;;;14.23;12.93;;;;;;;7.83;100.00;96370.22;5033154;28;21064;-75
2022/05/04 02:48:10;;;;;;;14.73;13.53;;;;;;;7.19;100.00;96327.78;5033382;28;20486;-75
2022/05/04 02:50:37;;;;;;;13.73;12.63;;;;;;;7.28;100.00;96342.53;5051061;28;21013;-75
2022/05/04 02:53:05;;;;;;;16.20;14.77;;;;;;;7.47;100.00;96373.06;5033060;28;20891;-75
2022/05/04 02:55:32;;;;;;;13.63;12.43;;;;;;;7.37;100.00;96363.63;5033083;28;20439;-75
2022/05/04 02:58:00;;;;;;;14.33;13.03;;;;;;;6.77;100.00;96350.94;5038143;28;20486;-75
2022/05/04 03:00:27;;;;;;;16.60;13.30;;;;;;;6.77;100.00;96353.56;5051032;28;20448;-75
2022/05/04 03:02:54;;;;;;;13.60;12.07;;;;;;;6.74;100.00;96343.69;5050856;28;20884;-75
2022/05/04 03:05:22;;;;;;;13.60;12.20;;;;;;;6.91;100.00;96361.38;5050922;28;20896;-74
2022/05/04 03:07:48;;;;;;;13.87;12.53;;;;;;;6.91;100.00;96367.41;5032868;28;20479;-74
2022/05/04 03:10:16;;;;;;;12.70;11.40;;;;;;;6.59;100.00;96338.78;5032983;28;20470;-74
2022/05/04 03:12:43;;;;;;;14.00;12.70;;;;;;;6.87;100.00;96360.44;5032938;28;20478;-74
2022/05/04 03:15:10;;;;;;;13.80;12.50;;;;;;;6.97;100.00;96350.47;5033129;28;20482;-74
2022/05/04 03:17:36;;;;;;;15.40;14.00;;;;;;;6.48;100.00;96318.03;5032778;28;20543;-74
2022/05/04 03:20:05;;;;;;;13.43;12.23;;;;;;;6.65;100.00;96322.59;5032546;28;20479;-74
2022/05/04 03:22:32;;;;;;;14.07;12.77;;;;;;;6.86;100.00;96354.41;5032730;28;20443;-74
2022/05/04 03:24:59;;;;;;;15.97;13.17;;;;;;;6.76;100.00;96363.31;5032877;28;20489;-74
2022/05/04 03:27:26;;;;;;;16.17;14.67;;;;;;;6.46;100.00;96335.16;5032683;28;20602;-74
2022/05/04 03:29:56;;;;;;;21.63;19.33;;;;;;;6.27;100.00;96335.31;5032645;28;20476;-74
2022/05/04 03:32:22;;;;;;;22.93;17.93;;;;;;;6.50;100.00;96350.00;5032640;28;20501;-74
2022/05/04 03:34:49;;;;;;;19.30;17.60;;;;;;;6.29;100.00;96332.41;5050713;28;20434;-74
2022/05/04 03:37:16;;;;;;;16.43;15.00;;;;;;;6.42;100.00;96335.00;5032539;28;20818;-74
2022/05/04 03:39:42;;;;;;;19.20;17.30;;;;;;;6.58;100.00;96322.25;5049151;28;20926;-74
2022/05/04 03:42:12;;;;;;;19.00;16.97;;;;;;;6.94;100.00;96364.19;5049151;28;20478;-74
2022/05/04 03:44:38;;;;;;;18.83;16.93;;;;;;;6.96;100.00;96369.94;5020089;28;20463;-75
2022/05/04 03:47:05;;;;;;;19.57;17.60;;;;;;;6.62;100.00;96346.84;5046354;28;20444;-75
2022/05/04 03:49:32;;;;;;;15.73;14.33;;;;;;;6.27;100.00;96335.31;5050653;28;20522;-74
2022/05/04 03:51:59;;;;;;;14.07;12.87;;;;;;;6.14;100.00;96367.66;5036310;28;20542;-74
2022/05/04 03:54:26;;;;;;;12.90;11.60;;;;;;;6.21;100.00;96368.03;5052903;28;20531;-74
2022/05/04 03:56:52;;;;;;;14.23;12.90;;;;;;;6.44;100.00;96366.19;5036494;28;20445;-74
2022/05/04 03:59:19;;;;;;;14.10;12.70;;;;;;;6.35;100.00;96373.22;5036390;28;20443;-74
2022/05/04 04:01:48;;;;;;;14.40;13.00;;;;;;;6.59;100.00;96375.56;5036278;28;20442;-74
2022/05/04 04:04:14;;;;;;;12.80;11.60;;;;;;;6.65;100.00;96363.84;5036443;28;20868;-74
2022/05/04 04:06:41;;;;;;;14.10;12.80;;;;;;;6.65;100.00;96358.59;5019818;28;20534;-74
2022/05/04 04:09:08;;;;;;;14.73;13.33;;;;;;;6.67;100.00;96349.34;5042566;28;20495;-74
2022/05/04 04:11:34;;;;;;;14.63;13.23;;;;;;;6.78;100.00;96357.75;5035945;28;20467;-74
2022/05/04 04:14:01;;;;;;;14.13;12.43;;;;;;;6.79;100.00;96380.31;5036142;28;20525;-74
2022/05/04 04:16:29;;;;;;;13.03;11.83;;;;;;;6.82;100.00;96377.13;5035885;28;20442;-74
2022/05/04 04:18:56;;;;;;;14.20;12.90;;;;;;;6.94;100.00;96373.91;5035638;28;20446;-74
2022/05/04 04:24:08;;;;;;;14.33;13.13;;;;;;;6.99;100.00;96369.31;5035798;28;20530;-74
2022/05/04 04:26:36;;;;;;;14.27;12.77;;;;;;;7.16;100.00;96394.91;5035769;28;20436;-74
2022/05/04 04:29:03;;;;;;;13.23;12.20;;;;;;;6.88;100.00;96377.75;5035752;28;20443;-74
2022/05/04 04:31:30;;;;;;;13.50;12.30;;;;;;;6.68;100.00;96373.78;5035615;28;20456;-74
2022/05/04 04:33:58;;;;;;;14.53;13.23;;;;;;;6.82;100.00;96363.97;5036033;28;20518;-74
2022/05/04 04:36:25;;;;;;;14.90;13.60;;;;;;;6.98;100.00;96369.63;5032372;28;20507;-73
2022/05/04 04:38:52;;;;;;;17.07;15.47;;;;;;;6.77;100.00;96349.09;5050528;28;21005;-73
2022/05/04 04:41:19;;;;;;;17.17;15.60;;;;;;;7.13;100.00;96400.78;5035527;28;20494;-73
2022/05/04 04:43:45;;;;;;;15.23;13.93;;;;;;;6.84;100.00;96377.59;5053329;28;21021;-73
2022/05/04 04:46:12;;;;;;;15.87;14.57;;;;;;;6.96;100.00;96379.66;5035018;28;20999;-73
2022/05/04 04:48:39;;;;;;;14.13;12.87;;;;;;;6.85;100.00;96404.66;5051945;28;20794;-73
2022/05/04 04:51:05;;;;;;;14.10;12.87;;;;;;;7.28;100.00;96402.25;5053111;28;20487;-73
2022/05/04 04:53:33;;;;;;;14.57;13.13;;;;;;;7.18;100.00;96411.16;5034977;28;20445;-73
2022/05/04 04:55:59;;;;;;;13.53;12.43;;;;;;;7.72;100.00;96415.25;5035025;28;20428;-73
2022/05/04 04:58:26;;;;;;;15.70;14.17;;;;;;;8.00;100.00;96413.16;5034868;28;20781;-73
2022/05/04 05:00:53;;;;;;;14.70;13.40;;;;;;;8.01;100.00;96408.66;5034805;28;20463;-73
2022/05/04 05:03:19;;;;;;;16.57;14.30;;;;;;;7.87;100.00;96400.13;5034678;28;20501;-73
2022/05/04 05:05:46;;;;;;;14.03;12.73;;;;;;;7.78;100.00;96388.81;5052816;28;20466;-73
2022/05/04 05:08:13;;;;;;;15.80;11.70;;;;;;;8.09;100.00;96389.47;5035149;28;20444;-73
2022/05/04 05:10:40;;;;;;;13.70;12.40;;;;;;;8.07;100.00;96375.84;5052026;28;20461;-73
2022/05/04 05:13:07;;;;;;;13.73;12.53;;;;;;;8.01;100.00;96374.44;5047500;28;20818;-73
2022/05/04 05:18:27;;;;;;;15.50;14.17;;;;;;;8.21;100.00;96402.03;5072589;28;20428;-73
2022/05/04 05:20:54;;;;;;;13.87;12.57;;;;;;;8.06;100.00;96369.03;5037739;28;20471;-75
2022/05/04 05:23:23;;;;;;;15.03;13.63;;;;;;;8.11;100.00;96381.28;5035928;28;20483;-75
2022/05/04 05:25:51;;;;;;;15.37;13.97;;;;;;;8.06;100.00;96344.56;5037166;28;20547;-75
2022/05/04 05:28:17;;;;;;;16.47;14.77;;;;;;;8.13;100.00;96403.56;5045488;28;20431;-74
2022/05/04 05:30:44;;;;;;;15.70;14.30;;;;;;;8.24;100.00;96378.50;5055277;28;20979;-74
2022/05/04 05:33:11;;;;;;;20.57;15.23;;;;;;;8.88;100.00;96401.59;5056201;28;20810;-74
2022/05/04 05:35:38;;;;;;;15.70;14.20;;;;;;;9.15;100.00;96403.09;5057650;28;20466;-74
2022/05/04 05:38:04;;;;;;;16.37;14.77;;;;;;;9.07;100.00;96409.91;5056544;28;20443;-74
2022/05/04 05:40:31;;;;;;;14.17;12.97;;;;;;;9.03;100.00;96377.34;5039478;28;20460;-75
2022/05/04 05:42:58;;;;;;;16.17;14.70;;;;;;;9.14;100.00;96407.59;5047686;28;20788;-75
2022/05/04 05:45:24;;;;;;;16.57;14.97;;;;;;;9.34;100.00;96410.63;5037732;28;21083;-75
2022/05/04 05:47:52;;;;;;;19.17;16.47;;;;;;;9.40;100.00;96388.25;5034853;28;20447;-75
2022/05/04 05:50:18;;;;;;;16.40;14.97;;;;;;;9.63;100.00;96415.19;5033999;28;20511;-75
2022/05/04 05:52:45;;;;;;;17.03;15.63;;;;;;;9.38;100.00;96340.31;5034965;28;20454;-75
2022/05/04 05:55:12;;;;;;;16.97;15.40;;;;;;;10.20;100.00;96412.09;5034457;28;20479;-75
2022/05/04 05:57:39;;;;;;;15.67;14.37;;;;;;;10.34;100.00;96399.41;5052379;28;20423;-75
2022/05/04 06:00:07;;;;;;;15.97;14.60;;;;;;;10.68;100.00;96406.28;5052237;28;20543;-75
2022/05/04 06:02:39;;;;;;;18.50;16.77;;;;;;;10.96;100.00;96425.03;5052519;28;20424;-75
2022/05/04 06:05:07;;;;;;;16.60;15.00;;;;;;;10.75;100.00;96405.78;5052170;28;20460;-75
2022/05/04 06:07:33;;;;;;;16.80;15.03;;;;;;;10.79;100.00;96410.09;5034737;28;20442;-75
2022/05/04 06:10:00;;;;;;;16.77;14.60;;;;;;;10.56;100.00;96374.53;5039437;28;20530;-78
2022/05/04 06:12:27;;;;;;;17.37;15.77;;;;;;;10.44;100.00;96379.75;5041647;28;20437;-77
2022/05/04 06:14:53;;;;;;;16.10;14.80;;;;;;;10.75;100.00;96421.66;5041005;28;20455;-78
2022/05/04 06:17:20;;;;;;;17.20;15.50;;;;;;;10.91;100.00;96396.13;5039848;28;20443;-78
2022/05/04 06:19:47;;;;;;;16.60;15.20;;;;;;;11.00;100.00;96401.34;5039771;28;20494;-78
2022/05/04 06:22:14;;;;;;;17.93;16.23;;;;;;;11.13;100.00;96384.41;5036121;28;20438;-76
2022/05/04 06:24:41;;;;;;;17.07;15.57;;;;;;;11.37;100.00;96413.56;5034754;28;20436;-76
2022/05/04 06:27:08;;;;;;;17.77;16.00;;;;;;;11.39;100.00;96411.38;5034767;28;20471;-76
2022/05/04 06:35:06;;;;;;;19.47;14.43;;;;;;;11.99;100.00;96424.97;5052875;28;20424;-75
2022/05/04 06:37:33;;;;;;;15.90;14.33;;;;;;;12.06;100.00;96431.28;5034628;28;20444;-75
2022/05/04 06:40:00;;;;;;;15.50;13.90;;;;;;;12.13;100.00;96438.66;5052066;28;20460;-75
2022/05/04 06:42:26;;;;;;;15.97;14.17;;;;;;;11.92;100.00;96385.81;5052321;28;20433;-76
2022/05/04 06:44:59;;;;;;;15.70;14.00;;;;;;;12.32;100.00;96438.09;5034225;28;21113;-76
2022/05/04 06:47:26;;;;;;;14.97;13.63;;;;;;;12.55;100.00;96444.44;5030196;28;20503;-76
2022/05/04 06:49:53;;;;;;;14.60;13.33;;;;;;;12.63;100.00;96448.09;5033777;28;20485;-76
2022/05/04 06:52:20;;;;;;;14.73;13.53;;;;;;;12.43;100.00;96425.94;5034506;28;20444;-76
2022/05/04 06:54:47;;;;;;;14.00;12.70;;;;;;;12.59;100.00;96445.34;5052164;28;20428;-76
2022/05/04 06:57:13;;;;;;;14.07;12.67;;;;;;;12.56;100.00;96430.09;5052004;28;20525;-76
2022/05/04 06:59:40;;;;;;;15.33;13.70;;;;;;;12.79;100.00;96424.25;5034265;28;21200;-76
2022/05/04 07:02:07;;;;;;;17.67;16.07;;;;;;;12.57;100.00;96426.34;5034293;28;20540;-76
2022/05/04 07:04:33;;;;;;;15.30;13.67;;;;;;;12.90;100.00;96442.03;5033812;28;20962;-76
2022/05/04 07:07:00;;;;;;;14.50;13.10;;;;;;;12.79;100.00;96427.69;5017380;28;20496;-76
2022/05/04 07:09:27;;;;;;;13.77;12.57;;;;;;;12.98;100.00;96427.84;5034380;28;20456;-76
2022/05/04 07:11:54;;;;;;;14.83;13.50;;;;;;;13.27;100.00;96440.00;5051579;28;20439;-76
2022/05/04 07:14:20;;;;;;;12.80;11.50;;;;;;;13.15;100.00;96391.47;5033842;28;20436;-75
2022/05/04 07:16:47;;;;;;;14.77;13.37;;;;;;;13.47;100.00;96446.19;5033907;28;20424;-75
2022/05/04 07:19:14;;;;;;;13.07;11.97;;;;;;;13.47;100.00;96410.88;5033877;28;20559;-75
2022/05/04 07:21:42;;;;;;;12.17;11.20;;;;;;;13.74;100.00;96441.13;5033519;28;20510;-75
2022/05/04 07:24:10;;;;;;;13.33;10.63;;;;;;;13.51;100.00;96409.09;5052997;28;20444;-75
2022/05/04 07:26:39;;;;;;;12.60;11.37;;;;;;;13.60;100.00;96405.16;5037965;28;20470;-75
2022/05/04 07:29:05;;;;;;;11.87;10.60;;;;;;;13.76;100.00;96431.75;5037613;28;20536;-75
2022/05/04 07:31:38;;;;;;;11.83;10.73;;;;;;;13.46;100.00;96385.44;5055686;28;20452;-75
2022/05/04 07:34:05;;;;;;;11.40;10.30;;;;;;;13.95;100.00;96428.38;5055521;28;20438;-76
2022/05/04 07:36:32;;;;;;;14.20;9.90;;;;;;;14.07;100.00;96430.16;5055527;28;20789;-76
2022/05/04 07:38:59;;;;;;;10.20;9.20;;;;;;;14.34;100.00;96444.44;5037707;28;20958;-75
2022/05/04 07:44:11;;;;;;;10.90;9.80;;;;;;;14.55;100.00;96447.56;5040425;28;20467;-76
2022/05/04 07:46:38;;;;;;;10.27;9.30;;;;;;;14.44;100.00;96425.31;5042299;28;20536;-75
2022/05/04 07:49:05;;;;;;;12.03;10.87;;;;;;;14.27;100.00;96417.66;5059950;28;20474;-75
2022/05/04 07:51:32;;;;;;;10.60;9.60;;;;;;;14.41;100.00;96407.31;5060003;28;20449;-76
2022/05/04 07:53:59;;;;;;;10.10;9.20;;;;;;;14.45;100.00;96434.81;5039780;28;20520;-76
2022/05/04 07:56:25;;;;;;;10.43;9.43;;;;;;;14.40;100.00;96427.84;5036562;28;20479;-76
2022/05/04 07:58:52;;;;;;;10.40;9.50;;;;;;;14.67;100.00;96450.09;5037273;28;20970;-76
2022/05/04 08:04:16;;;;;;;10.67;9.77;;;;;;;14.93;100.00;96446.81;5054839;28;20798;-76
2022/05/04 08:06:44;;;;;;;10.73;9.83;;;;;;;14.86;100.00;96438.69;5054543;28;20456;-76
2022/05/04 08:09:11;;;;;;;9.93;9.03;;;;;;;15.04;100.00;96431.03;5036712;28;20564;-76
2022/05/04 08:11:37;;;;;;;10.77;9.80;;;;;;;15.47;100.00;96448.56;5036966;28;20487;-76
2022/05/04 08:14:04;;;;;;;10.27;9.33;;;;;;;15.41;100.00;96444.66;5054830;28;20501;-76
2022/05/04 08:16:31;;;;;;;9.30;8.43;;;;;;;15.73;100.00;96461.22;5036989;28;20488;-76
2022/05/04 08:18:59;;;;;;;10.07;9.20;;;;;;;15.51;100.00;96411.34;5037200;28;20429;-76
2022/05/04 08:21:26;;;;;;;9.17;8.50;;;;;;;15.77;100.00;96435.41;5054749;28;20536;-76
2022/05/04 08:23:53;;;;;;;10.30;8.13;;;;;;;16.29;100.00;96436.53;5036455;28;20523;-76
2022/05/04 08:26:22;;;;;;;10.53;9.17;;;;;;;16.18;100.00;96443.63;5036526;28;20833;-76
2022/05/04 08:28:50;;;;;;;9.90;9.07;;;;;;;16.05;100.00;96405.72;5054239;28;20456;-76
2022/05/04 08:31:18;;;;;;;9.60;8.60;;;;;;;15.80;100.00;96400.03;5054443;28;20452;-76
2022/05/04 08:33:45;;;;;;;11.27;8.67;;;;;;;15.78;100.00;96388.19;5059396;28;20508;-76
2022/05/04 08:36:12;;;;;;;8.23;7.63;;;;;;;15.79;100.00;96382.50;5054816;28;20460;-75
2022/05/04 08:38:39;;;;;;;10.90;8.37;;;;;;;16.63;100.00;96460.66;5062416;28;20433;-76
2022/05/04 08:41:07;;;;;;;9.67;8.87;;;;;;;17.03;100.00;96458.13;5055566;28;20544;-76
2022/05/04 08:43:35;;;;;;;9.47;8.67;;;;;;;16.21;100.00;96426.91;5055110;28;20425;-76
2022/05/04 08:46:03;;;;;;;8.13;7.53;;;;;;;16.24;100.00;96458.97;5036545;28;20492;-76
2022/05/04 08:48:32;;;;;;;8.60;8.00;;;;;;;16.31;100.00;96441.53;5037909;28;20548;-76
2022/05/04 08:51:04;;;;;;;8.13;7.53;;;;;;;16.81;100.00;96461.66;5055036;28;20547;-76
2022/05/04 08:53:32;;;;;;;7.47;6.80;;;;;;;17.35;100.00;96463.78;5037309;28;20504;-76
2022/05/04 08:55:59;;;;;;;9.13;8.23;;;;;;;17.51;100.00;96436.09;5037160;28;20941;-76
2022/05/04 08:58:39;;;;;;;7.13;6.30;;;;;;;17.40;93.98;96470.72;5054748;28;20999;-76
2022/05/04 09:01:06;;;;;;;7.33;6.77;;;;;;;18.00;92.72;96465.19;5054549;28;20452;-76
2022/05/04 09:03:33;;;;;;;7.10;6.60;;;;;;;18.14;90.40;96462.59;5036250;28;20524;-76
2022/05/04 09:06:00;;;;;;;7.40;6.83;;;;;;;17.77;88.85;96457.38;5017263;28;20539;-76
2022/05/04 09:09:08;;;;;;;6.40;5.70;;;;;;;17.80;88.84;96439.81;5053981;28;20433;-76
2022/05/04 09:11:42;;;;;;;7.07;6.50;;;;;;;18.04;88.80;96446.50;5036116;28;20453;-76
2022/05/04 09:14:15;;;;;;;7.70;7.10;;;;;;;18.17;89.09;96448.50;5054611;28;20508;-76
2022/05/04 09:16:43;;;;;;;7.07;6.47;;;;;;;17.81;88.05;96422.63;5053847;28;20453;-76
2022/05/04 09:19:14;;;;;;;9.53;8.63;;;;;;;18.57;85.66;96439.56;5035825;28;20441;-76
2022/05/04 09:21:41;;;;;;;8.80;8.10;;;;;;;18.55;84.98;96452.53;5036511;28;20451;-76
2022/05/04 09:24:08;;;;;;;7.67;7.03;;;;;;;18.37;82.16;96434.84;5053703;28;20921;-76
2022/05/04 09:26:40;;;;;;;7.80;7.20;;;;;;;18.70;84.27;96441.94;5037940;28;20492;-76
2022/05/04 09:29:10;;;;;;;7.63;6.90;;;;;;;19.09;81.06;96404.53;5056198;28;20425;-76
2022/05/04 09:31:39;;;;;;;7.00;6.50;;;;;;;18.41;76.68;96433.72;5037958;28;21052;-76
2022/05/04 09:34:07;;;;;;;7.63;7.03;;;;;;;17.87;80.26;96371.06;5056505;28;20955;-76
2022/05/04 09:36:35;;;;;;;8.00;7.20;;;;;;;17.88;82.18;96382.53;5056544;28;20425;-76
2022/05/04 09:45:06;;;;;;;8.13;7.50;;;;;;;18.40;79.49;96428.72;5054450;28;20520;-76
2022/05/04 09:47:37;;;;;;;7.57;6.97;;;;;;;18.59;79.16;96431.16;5049417;28;20452;-76
2022/05/04 09:50:04;;;;;;;6.43;5.90;;;;;;;18.59;78.69;96433.81;5054087;28;20449;-76
2022/05/04 09:52:48;;;;;;;5.63;5.10;;;;;;;18.90;75.97;96419.81;5035692;28;20439;-76
2022/05/04 09:55:24;;;;;;;6.40;5.30;;;;;;;18.70;76.22;96423.97;5053479;28;20463;-76
2022/05/04 09:57:53;;;;;;;6.73;6.03;;;;;;;18.34;74.59;96398.13;5035308;28;20495;-76
2022/05/04 10:00:23;;;;;;;8.50;7.37;;;;;;;18.61;76.08;96432.31;5053077;28;20461;-76
2022/05/04 10:02:52;;;;;;;8.13;7.30;;;;;;;18.81;76.01;96430.09;5053152;28;20484;-77
2022/05/04 10:05:20;;;;;;;7.63;7.03;;;;;;;18.60;74.05;96428.09;5035703;28;20429;-76
2022/05/04 10:07:49;;;;;;;6.03;5.53;;;;;;;18.67;74.42;96394.47;5053413;28;20532;-76
2022/05/04 10:10:19;;;;;;;7.23;6.73;;;;;;;19.04;75.61;96399.56;5035533;28;20458;-76
2022/05/04 10:12:46;;;;;;;6.67;6.07;;;;;;;18.73;73.46;96358.91;5052886;28;20437;-76
2022/05/04 10:15:15;;;;;;;8.23;6.00;;;;;;;19.53;72.63;96376.66;5034941;28;20532;-76
2022/05/04 10:17:45;;;;;;;6.03;5.43;;;;;;;19.61;69.65;96387.03;5052772;28;20475;-76
2022/05/04 10:20:30;;;;;;;8.67;7.00;;;;;;;19.52;70.28;96372.44;5052463;28;20465;-76
2022/05/04 10:23:01;;;;;;;6.83;6.33;;;;;;;19.51;71.84;96395.81;5035234;28;20422;-76
2022/05/04 10:25:32;;;;;;;5.83;5.30;;;;;;;20.12;68.76;96371.66;5035554;28;20421;-76
2022/05/04 10:28:07;;;;;;;5.73;5.23;;;;;;;20.17;69.21;96379.31;5035010;28;20493;-74
2022/05/04 10:30:34;;;;;;;5.50;5.03;;;;;;;20.28;66.83;96362.00;5052534;28;20515;-75
2022/05/04 10:33:05;;;;;;;8.53;5.27;;;;;;;19.87;66.77;96393.16;5052341;28;20429;-74
2022/05/04 10:35:40;;;;;;;5.83;5.43;;;;;;;19.70;66.53;96389.34;5052345;28;20512;-75
2022/05/04 10:38:25;;;;;;;6.10;5.00;;;;;;;19.91;65.10;96343.72;5052159;28;20449;-75
2022/05/04 10:40:59;;;;;;;4.70;4.40;;;;;;;20.28;64.15;96372.75;5022561;28;20527;-74
2022/05/04 10:43:38;;;;;;;5.30;4.80;;;;;;;20.23;63.92;96373.16;5034536;28;20820;-76
2022/05/04 10:46:22;;;;;;;5.33;4.83;;;;;;;20.17;63.37;96371.28;5034239;28;20925;-76
2022/05/04 10:49:03;;;;;;;9.10;5.57;;;;;;;20.66;62.80;96375.72;5034919;28;20914;-76
2022/05/04 10:51:33;;;;;;;4.90;4.50;;;;;;;20.36;61.38;96347.41;5050951;28;20481;-76
2022/05/04 10:54:08;;;;;;;5.77;4.60;;;;;;;20.55;59.21;96364.25;5052196;28;20464;-77
2022/05/04 10:56:41;;;;;;;4.33;4.03;;;;;;;20.56;60.66;96318.19;5034000;28;20437;-76
2022/05/04 10:59:08;;;;;;;4.90;4.50;;;;;;;21.05;58.73;96356.72;5052218;28;20465;-76
2022/05/04 11:01:37;;;;;;;5.17;4.47;;;;;;;20.87;58.09;96361.44;5034220;28;20480;-76
2022/05/04 11:04:10;;;;;;;4.90;4.50;;;;;;;19.94;59.33;96352.91;5034568;28;20442;-74
2022/05/04 11:06:45;;;;;;;4.33;4.03;;;;;;;19.96;58.49;96347.91;5052020;28;20453;-74
2022/05/04 11:09:18;;;;;;;6.53;4.97;;;;;;;19.51;57.31;96344.88;5033878;28;20987;-75
2022/05/04 11:11:47;;;;;;;7.93;5.17;;;;;;;19.35;58.59;96331.03;5051568;28;20488;-76
2022/05/04 11:14:16;;;;;;;6.97;6.03;;;;;;;20.32;59.27;96333.25;5034363;28;20438;-75
2022/05/04 11:16:44;;;;;;;4.10;3.80;;;;;;;20.94;57.84;96303.00;5034266;28;20956;-75
2022/05/04 11:19:14;;;;;;;7.63;5.17;;;;;;;21.41;58.39;96327.69;5052311;28;20499;-75
2022/05/04 11:21:42;;;;;;;4.80;4.37;;;;;;;20.05;58.61;96295.34;5034124;28;20489;-75
2022/05/04 11:24:10;;;;;;;6.17;4.07;;;;;;;20.29;59.13;96331.31;5052695;28;20948;-75
2022/05/04 11:26:50;;;;;;;5.50;5.10;;;;;;;19.92;59.95;96337.19;5052001;28;20548;-75
2022/05/04 11:29:23;;;;;;;4.97;4.57;;;;;;;19.62;60.61;96340.28;5034390;28;20536;-75
2022/05/04 11:31:57;;;;;;;5.77;5.37;;;;;;;19.18;63.84;96337.94;5052410;28;20453;-75
2022/05/04 11:34:29;;;;;;;5.40;4.90;;;;;;;19.02;63.81;96343.66;5021859;28;20487;-75
2022/05/04 11:36:58;;;;;;;5.00;4.40;;;;;;;18.46;63.71;96302.16;5034944;28;20524;-75
2022/05/04 11:39:26;;;;;;;4.40;4.00;;;;;;;18.62;61.13;96325.94;5051731;28;21310;-75
2022/05/04 11:41:59;;;;;;;5.53;4.00;;;;;;;18.47;60.35;96321.69;5051335;28;20460;-75
2022/05/04 11:44:27;;;;;;;5.63;5.00;;;;;;;18.50;60.79;96335.06;5017306;28;20491;-75
2022/05/04 11:46:56;;;;;;;4.80;4.50;;;;;;;18.14;61.46;96299.34;5047472;28;20534;-75
2022/05/04 11:49:25;;;;;;;4.20;3.80;;;;;;;18.45;62.78;96332.00;5033316;28;20524;-75
2022/05/04 11:51:53;;;;;;;5.70;4.40;;;;;;;18.71;64.00;96307.63;5051374;28;20872;-75